Time;durP1;ratioP1;P1;durP2;ratioP2;P2;SDS_P1;SDS_P2;PMS_P1;PMS_P2;Temp;Humidity;BMP_temperature;BMP_pressure;BME280_temperature;BME280_humidity;BME280_pressure;Samples;Min_cycle;Max_cycle;Signal;HPM_P1;HPM_P2
2021/10/31 00:02:26;;;;;;;172.30;52.70;;;12.60;99.90;;;;;;6096263;23;20445;-75
2021/10/31 00:04:54;;;;;;;289.77;58.73;;;12.60;99.90;;;;;;6096131;23;20441;-75
2021/10/31 00:07:22;;;;;;;256.07;61.53;;;12.60;99.90;;;;;;6107427;23;20409;-75
2021/10/31 00:09:50;;;;;;;267.80;59.37;;;12.60;99.90;;;;;;6095934;23;20442;-75
2021/10/31 00:12:18;;;;;;;234.13;55.60;;;12.60;99.90;;;;;;6095944;23;20505;-75
2021/10/31 00:14:46;;;;;;;209.97;45.20;;;12.60;99.90;;;;;;6096000;23;20418;-75
2021/10/31 00:17:16;;;;;;;202.20;59.10;;;12.60;99.90;;;;;;6097924;23;20414;-75
2021/10/31 00:19:44;;;;;;;280.27;67.87;;;12.60;99.90;;;;;;6107476;23;20902;-75
2021/10/31 00:22:13;;;;;;;246.17;66.20;;;12.50;99.90;;;;;;6107475;23;20862;-76
2021/10/31 00:24:41;;;;;;;196.13;61.10;;;12.50;99.90;;;;;;6096004;23;20419;-75
2021/10/31 00:27:09;;;;;;;182.10;52.00;;;12.50;99.90;;;;;;6096121;23;20418;-75
2021/10/31 00:29:37;;;;;;;332.33;63.40;;;12.50;99.90;;;;;;6095805;23;20438;-75
2021/10/31 00:32:06;;;;;;;186.20;58.70;;;12.50;99.90;;;;;;6095918;23;20714;-76
2021/10/31 00:34:36;;;;;;;243.07;55.27;;;12.50;99.90;;;;;;6120602;23;20937;-75
2021/10/31 00:37:04;;;;;;;254.90;62.33;;;12.50;99.90;;;;;;6095784;23;20406;-75
2021/10/31 00:39:32;;;;;;;257.60;60.03;;;12.40;99.90;;;;;;6107223;23;20501;-76
2021/10/31 00:42:01;;;;;;;204.93;55.83;;;12.40;99.90;;;;;;6107104;23;20405;-75
2021/10/31 00:44:29;;;;;;;271.80;60.27;;;12.40;99.90;;;;;;6095862;23;20414;-75
2021/10/31 00:46:57;;;;;;;233.83;52.13;;;12.40;99.90;;;;;;6107086;23;20398;-75
2021/10/31 00:49:25;;;;;;;154.83;45.27;;;12.40;99.90;;;;;;6107107;23;20473;-76
2021/10/31 00:51:55;;;;;;;238.93;61.77;;;12.40;99.90;;;;;;6095928;23;20902;-75
2021/10/31 00:54:23;;;;;;;147.37;45.20;;;12.40;99.90;;;;;;6106612;23;20438;-76
2021/10/31 00:56:51;;;;;;;280.03;69.70;;;12.40;99.90;;;;;;6095718;23;20418;-76
2021/10/31 00:59:19;;;;;;;174.23;44.00;;;12.40;99.90;;;;;;6107196;23;20409;-76
2021/10/31 01:01:49;;;;;;;271.97;58.10;;;12.40;99.90;;;;;;6095708;23;20497;-75
2021/10/31 01:04:20;;;;;;;204.40;56.40;;;12.40;99.90;;;;;;6095615;23;20514;-76
2021/10/31 01:07:16;;;;;;;221.23;57.30;;;12.40;99.90;;;;;;6095610;23;20414;-76
2021/10/31 01:09:59;;;;;;;155.87;54.03;;;12.40;99.90;;;;;;6095605;23;20464;-75
2021/10/31 01:12:43;;;;;;;217.07;53.87;;;12.40;99.90;;;;;;6095783;23;20418;-75
2021/10/31 01:15:20;;;;;;;216.67;63.37;;;12.40;99.90;;;;;;6095742;23;20489;-75
2021/10/31 01:18:01;;;;;;;242.67;69.73;;;12.30;99.90;;;;;;6107165;23;20414;-75
2021/10/31 01:20:44;;;;;;;236.47;61.73;;;12.40;99.90;;;;;;6095262;23;20872;-76
2021/10/31 01:23:32;;;;;;;263.27;69.30;;;12.40;99.90;;;;;;6120134;23;20588;-75
2021/10/31 01:26:24;;;;;;;222.20;61.07;;;12.40;99.90;;;;;;6107324;23;20740;-75
2021/10/31 01:29:13;;;;;;;240.60;55.83;;;12.40;99.90;;;;;;6094164;23;20517;-75
2021/10/31 01:31:59;;;;;;;169.63;55.23;;;12.40;99.90;;;;;;6095623;23;20418;-75
2021/10/31 01:34:39;;;;;;;186.77;64.63;;;12.30;99.90;;;;;;6097131;23;20913;-76
2021/10/31 01:37:18;;;;;;;210.03;58.87;;;12.40;99.90;;;;;;6120130;23;20458;-75
2021/10/31 01:39:55;;;;;;;237.47;63.37;;;12.40;99.90;;;;;;6095265;23;20548;-75
2021/10/31 01:42:27;;;;;;;188.93;56.80;;;12.40;99.90;;;;;;6095627;23;20446;-75
2021/10/31 01:45:03;;;;;;;258.80;70.47;;;12.40;99.90;;;;;;6095570;23;20406;-76
2021/10/31 01:47:46;;;;;;;149.40;56.93;;;12.40;99.90;;;;;;6095599;23;20406;-76
2021/10/31 01:50:25;;;;;;;198.40;56.70;;;12.40;99.90;;;;;;6106744;23;20906;-76
2021/10/31 01:52:58;;;;;;;187.53;58.63;;;12.30;99.90;;;;;;6107059;23;20419;-76
2021/10/31 01:55:40;;;;;;;219.03;62.63;;;12.30;99.90;;;;;;6120013;23;20496;-76
2021/10/31 01:58:10;;;;;;;314.33;67.77;;;12.30;99.90;;;;;;6107196;23;20391;-76
2021/10/31 02:00:41;;;;;;;238.67;57.83;;;12.30;99.90;;;;;;6096348;23;20533;-76
2021/10/31 02:03:12;;;;;;;206.97;53.23;;;12.30;99.90;;;;;;6095551;23;20445;-76
2021/10/31 02:05:41;;;;;;;278.47;59.73;;;12.30;99.90;;;;;;6095337;23;20446;-76
2021/10/31 02:08:11;;;;;;;224.40;63.97;;;12.30;99.90;;;;;;6095521;23;20445;-76
2021/10/31 02:10:43;;;;;;;241.90;58.20;;;12.30;99.90;;;;;;6097372;23;20497;-75
2021/10/31 02:13:14;;;;;;;253.17;66.80;;;12.20;99.90;;;;;;6095486;23;20406;-76
2021/10/31 02:15:44;;;;;;;239.53;54.20;;;12.30;99.90;;;;;;6096731;23;20414;-75
2021/10/31 02:18:14;;;;;;;155.60;45.90;;;12.20;99.90;;;;;;6097166;23;20419;-76
2021/10/31 02:20:44;;;;;;;231.70;59.47;;;12.20;99.90;;;;;;6108085;23;20459;-76
2021/10/31 02:23:13;;;;;;;187.27;56.67;;;12.20;99.90;;;;;;6099025;23;20501;-75
2021/10/31 02:25:42;;;;;;;170.30;57.97;;;12.20;99.90;;;;;;6097205;23;20473;-76
2021/10/31 02:28:10;;;;;;;200.83;59.00;;;12.20;99.90;;;;;;6073227;23;20426;-76
2021/10/31 02:30:39;;;;;;;221.50;55.63;;;12.20;99.90;;;;;;6072920;23;20469;-75
2021/10/31 02:33:07;;;;;;;190.77;59.13;;;12.20;99.90;;;;;;6072984;23;20416;-76
2021/10/31 02:35:35;;;;;;;224.97;57.17;;;12.20;99.90;;;;;;6072971;23;20575;-75
2021/10/31 02:38:03;;;;;;;105.43;45.30;;;12.20;99.90;;;;;;6108976;23;20430;-76
2021/10/31 02:40:35;;;;;;;129.93;47.60;;;12.10;99.90;;;;;;6107768;23;20429;-76
2021/10/31 02:43:04;;;;;;;162.07;53.53;;;12.10;99.90;;;;;;6072977;23;20414;-75
2021/10/31 02:45:32;;;;;;;271.17;65.43;;;12.10;99.90;;;;;;6096977;23;20423;-75
2021/10/31 02:48:04;;;;;;;309.80;70.70;;;12.10;99.90;;;;;;6096778;23;20798;-76
2021/10/31 02:50:37;;;;;;;173.40;55.37;;;12.10;99.90;;;;;;6096767;23;20528;-75
2021/10/31 02:53:18;;;;;;;198.87;67.27;;;12.00;99.90;;;;;;6108017;23;20410;-76
2021/10/31 02:56:07;;;;;;;194.13;54.27;;;12.00;99.90;;;;;;6072922;23;20769;-75
2021/10/31 02:58:40;;;;;;;116.07;50.50;;;12.00;99.90;;;;;;6108496;23;20419;-75
2021/10/31 03:01:09;;;;;;;378.73;79.77;;;12.00;99.90;;;;;;6107883;23;20825;-75
2021/10/31 03:03:38;;;;;;;179.13;59.23;;;11.90;99.90;;;;;;6072741;23;20438;-75
2021/10/31 03:06:06;;;;;;;284.13;63.57;;;12.00;99.90;;;;;;6096661;23;20448;-75
2021/10/31 03:08:34;;;;;;;194.57;56.97;;;11.90;99.90;;;;;;6072729;23;20870;-75
2021/10/31 03:11:08;;;;;;;245.47;60.47;;;11.90;99.90;;;;;;6072623;23;20971;-76
2021/10/31 03:13:37;;;;;;;218.00;56.97;;;11.90;99.90;;;;;;6072672;23;20517;-75
2021/10/31 03:16:06;;;;;;;170.50;51.70;;;11.80;99.90;;;;;;6096142;23;20422;-75
2021/10/31 03:18:34;;;;;;;192.93;49.73;;;11.90;99.90;;;;;;6072652;23;20414;-76
2021/10/31 03:21:03;;;;;;;296.40;60.03;;;11.80;99.90;;;;;;6106893;23;21012;-75
2021/10/31 03:23:31;;;;;;;233.00;62.53;;;11.80;99.90;;;;;;6096906;23;20428;-75
2021/10/31 03:26:00;;;;;;;36.22;32.53;;;11.80;99.90;;;;;;6095345;23;20420;-75
2021/10/31 03:28:29;;;;;;;147.33;52.83;;;11.80;99.90;;;;;;6096394;23;20209;-75
2021/10/31 03:30:58;;;;;;;240.10;65.27;;;11.80;99.90;;;;;;6096330;23;20553;-75
2021/10/31 03:33:27;;;;;;;191.90;66.27;;;11.80;99.90;;;;;;6096478;23;20433;-76
2021/10/31 03:35:55;;;;;;;164.60;50.03;;;11.80;99.90;;;;;;6096055;23;20952;-75
2021/10/31 03:38:24;;;;;;;306.23;63.87;;;11.70;99.90;;;;;;6098280;23;20742;-75
2021/10/31 03:40:52;;;;;;;233.57;61.90;;;11.60;99.90;;;;;;6098114;23;20896;-75
2021/10/31 03:43:21;;;;;;;268.90;66.53;;;11.60;99.90;;;;;;6107729;23;20429;-76
2021/10/31 03:45:51;;;;;;;152.40;52.23;;;11.60;99.90;;;;;;6096143;23;20914;-75
2021/10/31 03:48:20;;;;;;;192.07;52.07;;;11.60;99.90;;;;;;6096167;23;20417;-75
2021/10/31 03:50:48;;;;;;;326.97;80.10;;;11.50;99.90;;;;;;6107565;23;20433;-75
2021/10/31 03:53:16;;;;;;;223.37;68.40;;;11.50;99.90;;;;;;6096179;23;20422;-76
2021/10/31 03:55:44;;;;;;;204.70;57.33;;;11.50;99.90;;;;;;6096145;23;20465;-75
2021/10/31 03:58:12;;;;;;;240.27;60.87;;;11.40;99.90;;;;;;6096447;23;20466;-75
2021/10/31 04:00:43;;;;;;;185.47;54.83;;;11.40;99.90;;;;;;6096027;23;20533;-75
2021/10/31 04:03:13;;;;;;;211.10;50.43;;;11.40;99.90;;;;;;6096236;23;20755;-76
2021/10/31 04:05:41;;;;;;;220.37;63.97;;;11.40;99.90;;;;;;6096096;23;20750;-75
2021/10/31 04:08:09;;;;;;;228.27;59.63;;;11.30;99.90;;;;;;6107339;23;20523;-75
2021/10/31 04:10:37;;;;;;;239.30;67.20;;;11.30;99.90;;;;;;6096043;23;20757;-75
2021/10/31 04:13:05;;;;;;;215.90;72.83;;;11.30;99.90;;;;;;6107607;23;20403;-75
2021/10/31 04:15:34;;;;;;;257.67;67.07;;;11.20;99.90;;;;;;6096045;23;20469;-76
2021/10/31 04:18:02;;;;;;;297.73;72.97;;;11.20;99.90;;;;;;6097130;23;20418;-76
2021/10/31 04:20:32;;;;;;;273.03;64.50;;;11.20;99.90;;;;;;6101401;23;20542;-75
2021/10/31 04:23:00;;;;;;;211.90;55.07;;;11.20;99.90;;;;;;6071938;23;20805;-75
2021/10/31 04:25:28;;;;;;;317.33;66.23;;;11.20;99.90;;;;;;6097852;23;20495;-76
2021/10/31 04:27:56;;;;;;;179.47;62.17;;;11.10;99.90;;;;;;6096435;23;20505;-76
2021/10/31 04:30:25;;;;;;;185.00;61.23;;;11.10;99.90;;;;;;6107166;23;20914;-75
2021/10/31 04:32:53;;;;;;;312.00;63.33;;;11.10;99.90;;;;;;6096030;23;20965;-75
2021/10/31 04:35:21;;;;;;;260.03;64.47;;;11.10;99.90;;;;;;6071796;23;20857;-76
2021/10/31 04:37:53;;;;;;;253.23;62.43;;;11.10;99.90;;;;;;6071510;23;20410;-75
2021/10/31 04:40:22;;;;;;;298.20;70.73;;;11.10;99.90;;;;;;6097609;23;20469;-76
2021/10/31 04:42:53;;;;;;;258.03;66.20;;;11.10;99.90;;;;;;6106924;23;20398;-75
2021/10/31 04:45:21;;;;;;;199.00;61.33;;;11.00;99.90;;;;;;6106773;23;20410;-76
2021/10/31 04:47:49;;;;;;;184.73;51.33;;;11.00;99.90;;;;;;6107086;23;20409;-76
2021/10/31 04:50:17;;;;;;;143.67;53.97;;;11.00;99.90;;;;;;6071713;23;21033;-76
2021/10/31 04:52:46;;;;;;;238.17;61.97;;;11.00;99.90;;;;;;6106901;23;20398;-75
2021/10/31 04:55:15;;;;;;;236.83;61.43;;;11.00;99.90;;;;;;6107006;23;20485;-76
2021/10/31 04:57:44;;;;;;;180.03;53.30;;;11.00;99.90;;;;;;6095777;23;20422;-75
2021/10/31 05:00:13;;;;;;;251.03;66.00;;;10.90;99.90;;;;;;6095600;23;20481;-75
2021/10/31 05:02:41;;;;;;;265.30;67.90;;;10.90;99.90;;;;;;6097299;23;20414;-76
2021/10/31 05:05:10;;;;;;;192.73;62.60;;;10.90;99.90;;;;;;6072069;23;20782;-76
2021/10/31 05:07:38;;;;;;;194.97;57.00;;;10.90;99.90;;;;;;6095467;23;20429;-75
2021/10/31 05:10:07;;;;;;;270.83;67.27;;;10.90;99.90;;;;;;6106632;23;20422;-75
2021/10/31 05:12:36;;;;;;;216.20;61.93;;;10.90;99.90;;;;;;6071650;23;20422;-76
2021/10/31 05:15:05;;;;;;;267.33;69.27;;;10.90;99.90;;;;;;6095756;23;20470;-76
2021/10/31 05:17:33;;;;;;;142.97;49.13;;;10.90;99.90;;;;;;6095794;23;20418;-76
2021/10/31 05:20:02;;;;;;;233.90;62.27;;;10.90;99.90;;;;;;6106811;23;20550;-76
2021/10/31 05:22:30;;;;;;;160.57;57.20;;;10.90;99.90;;;;;;6072157;23;20407;-75
2021/10/31 05:24:58;;;;;;;237.73;67.77;;;10.90;99.90;;;;;;6107020;23;20461;-75
2021/10/31 05:27:26;;;;;;;157.97;52.67;;;11.00;99.90;;;;;;6097563;23;20402;-76
2021/10/31 05:29:56;;;;;;;219.63;62.53;;;11.00;99.90;;;;;;6095649;23;20461;-75
2021/10/31 05:32:24;;;;;;;155.47;53.87;;;11.00;99.90;;;;;;6095788;23;20418;-75
2021/10/31 05:34:53;;;;;;;251.03;75.03;;;11.00;99.90;;;;;;6106775;23;20406;-75
2021/10/31 05:37:21;;;;;;;181.47;59.20;;;11.00;99.90;;;;;;6071387;23;20422;-75
2021/10/31 05:39:49;;;;;;;210.00;62.07;;;11.00;99.90;;;;;;6095431;23;20484;-75
2021/10/31 05:42:17;;;;;;;240.60;63.80;;;11.00;99.90;;;;;;6071516;23;20469;-75
2021/10/31 05:44:45;;;;;;;225.37;52.83;;;11.00;99.90;;;;;;6106947;23;20402;-75
2021/10/31 05:47:15;;;;;;;160.27;48.07;;;11.00;99.90;;;;;;6071475;23;20418;-75
2021/10/31 05:49:43;;;;;;;238.67;64.80;;;11.00;99.90;;;;;;6071933;23;20441;-75
2021/10/31 05:52:11;;;;;;;228.27;64.13;;;11.10;99.90;;;;;;6097462;23;20418;-75
2021/10/31 05:54:39;;;;;;;182.20;61.33;;;11.10;99.90;;;;;;6097517;23;20425;-75
2021/10/31 05:57:07;;;;;;;251.83;60.87;;;11.10;99.90;;;;;;6097161;23;20461;-75
2021/10/31 05:59:36;;;;;;;191.53;60.77;;;11.10;99.90;;;;;;6073242;23;20430;-75
2021/10/31 06:02:07;;;;;;;220.27;55.07;;;11.10;99.90;;;;;;6099301;23;20422;-75
2021/10/31 06:04:39;;;;;;;137.27;46.83;;;11.10;99.90;;;;;;6097354;23;20447;-75
2021/10/31 06:07:08;;;;;;;266.37;58.07;;;11.10;99.90;;;;;;6072493;23;20506;-75
2021/10/31 06:09:36;;;;;;;238.07;60.00;;;11.00;99.90;;;;;;6072825;23;20957;-75
2021/10/31 06:12:04;;;;;;;118.93;48.60;;;11.00;99.90;;;;;;6096995;23;20425;-75
2021/10/31 06:14:33;;;;;;;183.50;56.70;;;11.00;99.90;;;;;;6072674;23;20418;-75
2021/10/31 06:17:02;;;;;;;280.87;58.03;;;11.00;99.90;;;;;;6107575;23;20945;-74
2021/10/31 06:19:31;;;;;;;156.90;47.93;;;11.00;99.90;;;;;;6097035;23;20465;-75
2021/10/31 06:22:01;;;;;;;235.03;63.90;;;11.00;99.90;;;;;;6108413;23;20406;-76
2021/10/31 06:24:29;;;;;;;261.60;68.07;;;11.00;99.90;;;;;;6097142;23;20839;-76
2021/10/31 06:26:58;;;;;;;241.13;63.13;;;11.00;99.90;;;;;;6096836;23;20418;-75
2021/10/31 06:29:26;;;;;;;254.47;68.87;;;11.00;99.90;;;;;;6072933;23;20441;-76
2021/10/31 06:31:55;;;;;;;200.87;50.70;;;11.00;99.90;;;;;;6097073;23;20521;-76
2021/10/31 06:34:23;;;;;;;258.10;59.37;;;11.00;99.90;;;;;;6097318;23;20414;-75
2021/10/31 06:36:51;;;;;;;273.33;57.57;;;11.00;99.90;;;;;;6108312;23;20442;-75
2021/10/31 06:39:20;;;;;;;210.00;56.63;;;11.00;99.90;;;;;;6096891;23;20505;-75
2021/10/31 06:41:48;;;;;;;202.00;53.03;;;11.00;99.90;;;;;;6108134;23;20402;-76
2021/10/31 06:44:16;;;;;;;214.17;50.43;;;11.00;99.90;;;;;;6097043;23;20798;-76
2021/10/31 06:46:47;;;;;;;225.37;59.40;;;11.00;99.90;;;;;;6108186;23;20406;-75
2021/10/31 06:49:15;;;;;;;210.60;58.73;;;11.00;99.90;;;;;;6107978;23;20402;-76
2021/10/31 06:51:43;;;;;;;310.80;52.67;;;11.00;99.90;;;;;;6097028;23;20501;-76
2021/10/31 06:54:12;;;;;;;164.07;59.80;;;11.00;99.90;;;;;;6072952;23;20424;-76
2021/10/31 06:56:41;;;;;;;230.20;57.53;;;11.00;99.90;;;;;;6107930;23;20437;-75
2021/10/31 06:59:09;;;;;;;228.80;58.70;;;11.00;99.90;;;;;;6072786;23;20419;-76
2021/10/31 07:01:38;;;;;;;281.03;63.50;;;11.00;99.90;;;;;;6107943;23;20812;-75
2021/10/31 07:04:08;;;;;;;215.20;61.30;;;11.00;99.90;;;;;;6096783;23;20422;-76
2021/10/31 07:06:37;;;;;;;183.20;55.73;;;11.00;99.90;;;;;;6108136;23;20859;-76
2021/10/31 07:09:06;;;;;;;258.33;59.77;;;11.00;99.90;;;;;;6096904;23;20422;-75
2021/10/31 07:11:34;;;;;;;227.20;63.83;;;11.00;99.90;;;;;;6108294;23;20789;-76
2021/10/31 07:14:04;;;;;;;265.83;65.10;;;11.00;99.90;;;;;;6072106;23;20932;-76
2021/10/31 07:16:32;;;;;;;285.23;62.07;;;11.00;99.90;;;;;;6095166;23;20438;-75
2021/10/31 07:19:01;;;;;;;219.33;62.90;;;11.00;99.90;;;;;;6095099;23;20943;-75
2021/10/31 07:21:29;;;;;;;193.33;54.70;;;11.00;99.90;;;;;;6087997;23;20485;-76
2021/10/31 07:23:57;;;;;;;216.63;59.23;;;11.00;99.90;;;;;;6095667;23;20418;-75
2021/10/31 07:26:25;;;;;;;238.83;56.97;;;11.00;99.90;;;;;;6096343;23;20418;-76
2021/10/31 07:28:54;;;;;;;156.43;53.40;;;11.00;99.90;;;;;;6120934;23;20419;-75
2021/10/31 07:31:28;;;;;;;240.30;63.10;;;11.00;99.90;;;;;;6097887;23;20469;-75
2021/10/31 07:33:57;;;;;;;187.17;57.70;;;11.10;99.90;;;;;;6096515;23;20417;-75
2021/10/31 07:36:25;;;;;;;229.47;58.10;;;11.10;99.90;;;;;;6097852;23;20485;-75
2021/10/31 07:38:53;;;;;;;380.80;77.13;;;11.10;99.90;;;;;;6096146;23;20414;-75
2021/10/31 07:41:22;;;;;;;175.83;64.43;;;11.10;99.90;;;;;;6096248;23;20484;-75
2021/10/31 07:43:51;;;;;;;172.97;54.03;;;11.10;99.90;;;;;;6097919;23;20448;-75
2021/10/31 07:46:19;;;;;;;164.73;56.60;;;11.10;99.90;;;;;;6120893;23;20505;-75
2021/10/31 07:48:49;;;;;;;204.80;52.87;;;11.10;99.90;;;;;;6107858;23;20399;-75
2021/10/31 07:51:18;;;;;;;235.37;65.20;;;11.10;99.90;;;;;;6107216;23;20453;-76
2021/10/31 07:53:46;;;;;;;260.87;71.87;;;11.10;99.90;;;;;;6108024;23;20712;-75
2021/10/31 07:56:16;;;;;;;297.40;66.43;;;11.10;99.90;;;;;;6108167;23;20485;-75
2021/10/31 07:58:46;;;;;;;226.87;57.60;;;11.10;99.90;;;;;;6096288;23;20449;-75
2021/10/31 08:01:15;;;;;;;232.60;59.57;;;11.10;99.90;;;;;;6095205;23;20438;-75
2021/10/31 08:03:44;;;;;;;156.07;64.27;;;11.00;99.90;;;;;;6107264;23;20429;-75
2021/10/31 08:06:14;;;;;;;185.93;54.00;;;11.10;99.90;;;;;;6107406;23;20404;-75
2021/10/31 08:08:42;;;;;;;168.07;58.23;;;11.10;99.90;;;;;;6096246;23;20913;-75
2021/10/31 08:11:11;;;;;;;198.97;59.87;;;11.10;99.90;;;;;;6097716;23;20442;-76
2021/10/31 08:13:40;;;;;;;192.43;60.87;;;11.10;99.90;;;;;;6095847;23;20424;-76
2021/10/31 08:16:09;;;;;;;302.47;72.13;;;11.10;99.90;;;;;;6096198;23;20425;-75
2021/10/31 08:18:37;;;;;;;208.30;63.23;;;11.10;99.90;;;;;;6096135;23;20449;-75
2021/10/31 08:21:06;;;;;;;157.40;58.57;;;11.10;99.90;;;;;;6120290;23;20449;-76
2021/10/31 08:23:36;;;;;;;227.87;66.33;;;11.20;99.90;;;;;;6095976;23;20418;-75
2021/10/31 08:26:15;;;;;;;304.90;67.93;;;11.20;99.90;;;;;;6096206;23;20870;-75
2021/10/31 08:28:45;;;;;;;157.00;58.43;;;11.20;99.90;;;;;;6097894;23;20394;-75
2021/10/31 08:31:13;;;;;;;265.73;77.70;;;11.20;99.90;;;;;;6095879;23;20480;-76
2021/10/31 08:33:45;;;;;;;221.73;69.93;;;11.20;99.90;;;;;;6095917;23;20809;-75
2021/10/31 08:36:14;;;;;;;259.40;69.13;;;11.30;99.90;;;;;;6097592;23;20394;-75
2021/10/31 08:38:43;;;;;;;181.87;59.97;;;11.40;99.90;;;;;;6095779;23;20434;-76
2021/10/31 08:41:12;;;;;;;228.23;65.70;;;11.30;99.90;;;;;;6107053;23;20748;-75
2021/10/31 08:43:40;;;;;;;244.07;70.03;;;11.40;99.90;;;;;;6107319;23;20981;-75
2021/10/31 08:46:09;;;;;;;208.60;59.30;;;11.50;99.90;;;;;;6095898;23;20418;-76
2021/10/31 08:48:39;;;;;;;190.73;64.33;;;11.50;99.90;;;;;;6095757;23;20748;-74
2021/10/31 08:51:07;;;;;;;245.17;66.67;;;11.50;99.90;;;;;;6095593;23;20442;-75
2021/10/31 08:53:36;;;;;;;263.33;68.80;;;11.60;99.90;;;;;;6095761;23;20918;-75
2021/10/31 08:56:11;;;;;;;252.90;67.97;;;11.60;99.90;;;;;;6095618;23;20473;-74
2021/10/31 08:58:40;;;;;;;179.50;64.33;;;11.60;99.90;;;;;;6107409;23;20509;-75
2021/10/31 09:01:09;;;;;;;274.53;67.00;;;11.60;99.90;;;;;;6095764;23;20434;-75
2021/10/31 09:03:38;;;;;;;209.17;60.10;;;11.70;99.90;;;;;;6120305;23;20414;-76
2021/10/31 09:06:06;;;;;;;176.60;55.23;;;11.70;99.90;;;;;;6095604;23;20418;-76
2021/10/31 09:08:35;;;;;;;298.40;73.50;;;11.70;99.90;;;;;;6106844;23;20469;-75
2021/10/31 09:11:03;;;;;;;178.53;62.60;;;11.80;99.90;;;;;;6095619;23;20442;-76
2021/10/31 09:13:33;;;;;;;143.53;56.43;;;11.80;99.90;;;;;;6095722;23;20414;-75
2021/10/31 09:16:01;;;;;;;250.60;70.87;;;11.80;99.90;;;;;;6095811;23;20433;-76
2021/10/31 09:18:34;;;;;;;180.43;64.47;;;11.90;99.90;;;;;;6095622;23;20476;-76
2021/10/31 09:21:03;;;;;;;211.97;64.90;;;11.90;99.90;;;;;;6097003;23;20446;-76
2021/10/31 09:23:32;;;;;;;277.17;71.13;;;11.90;99.90;;;;;;6071803;23;20421;-76
2021/10/31 09:26:01;;;;;;;300.80;71.83;;;12.00;99.90;;;;;;6099288;23;20442;-76
2021/10/31 09:28:30;;;;;;;295.67;72.40;;;12.00;99.90;;;;;;6099596;23;20412;-75
2021/10/31 09:31:00;;;;;;;240.40;63.60;;;12.10;99.90;;;;;;6073522;23;20430;-76
2021/10/31 09:33:29;;;;;;;262.47;55.73;;;12.10;99.90;;;;;;6100620;23;20445;-76
2021/10/31 09:35:58;;;;;;;262.50;64.50;;;12.20;99.90;;;;;;6099474;23;20738;-75
2021/10/31 09:38:29;;;;;;;262.30;63.30;;;12.20;99.90;;;;;;6073365;23;20452;-75
2021/10/31 09:40:57;;;;;;;123.63;49.07;;;12.30;99.90;;;;;;6097626;23;20433;-76
2021/10/31 09:43:29;;;;;;;199.17;56.53;;;12.30;99.90;;;;;;6097370;23;20422;-75
2021/10/31 09:46:00;;;;;;;324.37;70.57;;;12.40;99.90;;;;;;6073618;23;20414;-76
2021/10/31 09:48:32;;;;;;;309.33;63.70;;;12.50;99.90;;;;;;6099263;23;20430;-75
2021/10/31 09:51:01;;;;;;;307.80;58.30;;;12.50;99.90;;;;;;6097489;23;20445;-76
2021/10/31 09:53:30;;;;;;;211.97;57.13;;;12.60;99.90;;;;;;6073403;23;20473;-75
2021/10/31 09:56:00;;;;;;;167.10;51.83;;;12.60;99.90;;;;;;6073677;23;20414;-76
2021/10/31 09:58:33;;;;;;;234.93;55.73;;;12.60;99.90;;;;;;6097255;23;20438;-76
2021/10/31 10:01:13;;;;;;;216.50;50.43;;;12.60;99.90;;;;;;6108955;23;20414;-76
2021/10/31 10:03:54;;;;;;;206.67;46.47;;;12.70;99.90;;;;;;6073412;23;20407;-76
2021/10/31 10:06:24;;;;;;;215.00;56.60;;;12.70;99.90;;;;;;6097267;23;20476;-75
2021/10/31 10:09:07;;;;;;;282.37;63.67;;;12.70;99.90;;;;;;6072940;23;20406;-76
2021/10/31 10:11:37;;;;;;;271.40;64.20;;;12.80;99.90;;;;;;6099316;23;20454;-75
2021/10/31 10:14:11;;;;;;;227.17;56.57;;;12.90;99.90;;;;;;6099672;23;20733;-75
2021/10/31 10:16:42;;;;;;;264.03;63.03;;;13.00;99.90;;;;;;6098765;23;20457;-75
2021/10/31 10:19:20;;;;;;;325.47;64.10;;;13.00;99.90;;;;;;6073057;23;20444;-76
2021/10/31 10:21:58;;;;;;;312.27;54.23;;;13.10;99.90;;;;;;6116546;23;20433;-75
2021/10/31 10:24:27;;;;;;;305.67;57.30;;;13.10;99.90;;;;;;6121555;23;20418;-75
2021/10/31 10:26:57;;;;;;;220.80;48.20;;;13.20;99.90;;;;;;6097140;23;20422;-75
2021/10/31 10:29:28;;;;;;;366.67;63.33;;;13.20;99.90;;;;;;6121516;23;20418;-76
2021/10/31 10:32:00;;;;;;;205.77;43.50;;;13.30;99.90;;;;;;6098272;23;20418;-76
2021/10/31 10:34:36;;;;;;;247.83;56.17;;;13.30;99.90;;;;;;6121483;23;20442;-75
2021/10/31 10:37:10;;;;;;;254.13;46.27;;;13.40;99.90;;;;;;6097074;23;20406;-75
2021/10/31 10:39:40;;;;;;;223.30;65.13;;;13.40;99.90;;;;;;6121257;23;20454;-75
2021/10/31 10:42:19;;;;;;;194.40;41.97;;;13.50;99.90;;;;;;6096997;23;20418;-75
2021/10/31 10:44:49;;;;;;;243.30;55.50;;;13.50;99.90;;;;;;6121224;23;20889;-76
2021/10/31 10:47:21;;;;;;;202.67;49.03;;;13.50;99.90;;;;;;6098742;23;20417;-77
2021/10/31 10:49:52;;;;;;;136.93;44.37;;;13.60;99.90;;;;;;6121284;23;20438;-77
2021/10/31 10:52:24;;;;;;;230.80;53.00;;;13.60;99.90;;;;;;6098810;23;20399;-77
2021/10/31 10:55:08;;;;;;;247.83;48.10;;;13.70;99.90;;;;;;6096637;23;20425;-77
2021/10/31 10:57:38;;;;;;;256.07;47.37;;;13.70;99.90;;;;;;6096736;23;20429;-76
2021/10/31 11:00:11;;;;;;;337.03;56.60;;;13.80;99.90;;;;;;6096507;23;20481;-76
2021/10/31 11:02:42;;;;;;;244.20;54.77;;;13.80;99.90;;;;;;6096957;23;20414;-76
2021/10/31 11:05:13;;;;;;;265.17;58.33;;;13.90;99.90;;;;;;6098700;23;20403;-77
2021/10/31 11:07:48;;;;;;;303.07;69.87;;;13.90;99.90;;;;;;6098326;23;20495;-76
2021/10/31 11:10:21;;;;;;;301.50;66.27;;;13.90;99.90;;;;;;6096677;23;20930;-76
2021/10/31 11:12:52;;;;;;;263.47;53.90;;;14.00;99.90;;;;;;6096726;23;20505;-76
2021/10/31 11:15:22;;;;;;;157.67;44.07;;;14.00;99.90;;;;;;6121115;23;20418;-77
2021/10/31 11:17:53;;;;;;;282.73;61.83;;;14.00;99.90;;;;;;6096953;23;20422;-77
2021/10/31 11:20:24;;;;;;;300.50;50.80;;;14.10;99.90;;;;;;6097493;23;20926;-76
2021/10/31 11:22:56;;;;;;;271.30;65.60;;;14.10;99.90;;;;;;6096523;23;20448;-77
2021/10/31 11:25:29;;;;;;;341.93;71.03;;;14.10;99.90;;;;;;6096544;23;20791;-76
2021/10/31 11:29:02;;;;;;;328.90;66.17;;;14.20;99.90;;;;;;6072009;23;20421;-76
2021/10/31 11:31:34;;;;;;;207.77;53.97;;;14.20;99.90;;;;;;6096416;23;20524;-77
2021/10/31 11:34:05;;;;;;;335.73;64.77;;;14.20;99.90;;;;;;6096428;23;20481;-77
2021/10/31 11:36:34;;;;;;;328.07;62.70;;;14.30;99.90;;;;;;6098535;23;20403;-76
2021/10/31 11:39:03;;;;;;;283.70;77.37;;;14.30;99.90;;;;;;6095985;23;20442;-76
2021/10/31 11:41:34;;;;;;;319.20;68.10;;;14.40;99.90;;;;;;6096283;23;20490;-76
2021/10/31 11:44:03;;;;;;;314.60;85.70;;;14.40;99.90;;;;;;6072394;23;20497;-77
2021/10/31 11:46:41;;;;;;;305.53;78.60;;;14.50;99.90;;;;;;6072416;23;20755;-76
2021/10/31 11:49:43;;;;;;;313.27;86.70;;;14.50;99.90;;;;;;6071999;23;20417;-76
2021/10/31 11:52:43;;;;;;;350.97;89.70;;;14.50;99.90;;;;;;6072112;23;20925;-76
2021/10/31 11:55:33;;;;;;;396.43;82.40;;;14.60;99.90;;;;;;6096386;23;20910;-77
2021/10/31 11:58:22;;;;;;;409.40;93.70;;;14.60;99.90;;;;;;6072256;23;20418;-77
2021/10/31 12:00:53;;;;;;;344.37;83.53;;;14.60;99.90;;;;;;6071927;23;20529;-76
2021/10/31 12:03:42;;;;;;;331.03;73.17;;;14.60;99.90;;;;;;6096228;23;20417;-76
2021/10/31 12:06:52;;;;;;;346.97;79.50;;;14.60;99.90;;;;;;6072158;23;20480;-76
2021/10/31 12:09:30;;;;;;;327.23;75.10;;;14.70;99.90;;;;;;6094868;23;20466;-76
2021/10/31 12:12:22;;;;;;;384.10;101.10;;;14.70;99.90;;;;;;6072302;23;20425;-76
2021/10/31 12:15:02;;;;;;;554.73;115.83;;;14.80;99.90;;;;;;6096234;23;20414;-76
2021/10/31 12:18:04;;;;;;;511.23;99.17;;;14.80;99.90;;;;;;6097875;23;20394;-76
2021/10/31 12:20:53;;;;;;;357.40;94.30;;;14.80;99.90;;;;;;6075967;23;20790;-76
2021/10/31 12:23:24;;;;;;;353.97;70.83;;;14.90;99.90;;;;;;6096125;23;20163;-77
2021/10/31 12:25:56;;;;;;;451.93;91.83;;;14.90;99.90;;;;;;6120372;23;20414;-76
2021/10/31 12:28:40;;;;;;;492.07;96.00;;;14.90;99.90;;;;;;6096019;23;20493;-77
2021/10/31 12:31:24;;;;;;;426.63;91.70;;;14.90;99.90;;;;;;6097593;23;20434;-76
2021/10/31 12:34:13;;;;;;;554.90;122.50;;;15.00;99.90;;;;;;6094469;23;20794;-76
2021/10/31 12:36:47;;;;;;;250.70;65.13;;;15.00;99.90;;;;;;6095652;23;20418;-76
2021/10/31 12:39:52;;;;;;;337.63;77.53;;;15.10;99.90;;;;;;6097604;23;20426;-77
2021/10/31 12:42:24;;;;;;;365.07;111.50;;;15.10;99.90;;;;;;6120404;23;20425;-77